KLM836 WSSS-EHAM
Flight info
| Callsign | KLM836 |
|---|---|
| Flight time | N/A |
| Altitude | 30000 |
| Route | AROSO3A AROSO Y513 KALIL Y501 RINBA Y502 DUBAX R325 PUT L759 MIPAK/N0510F320 L759 KKJ L333 KABEL/N0498F340 L333 MERUN L750 RANAH B449 MAMED B450 BIBIM A909 RODAR N644 NIJAT/N0488F360 N644 ADEKI DCT BADIR DCT LAGAS DCT FOQUS DCT SARPI UM10 GOKPA UL746 INB UW90 DEVMU UL852 NEGEM DCT DEGET DCT ALAMU/N0481F380 DCT MAREG DCT KOVEL DCT DITIS DCT VARIK DCT KATCE DCT NORKU |
| Aircraft | B77W/H-SDE1E2E3FGHIJ2J3J4J5M1RWXY/LB1D1 |
Departure
| Time | 2026-05-07 23:01 |
|---|---|
| Airport | Singapore Changi Airport (WSSS) |
Arrival
| Time | N/A |
|---|---|
| Airport | Amsterdam Airport Schiphol (EHAM) |
| Time | Latitude | Longitude | Altitude | Speed | Heading |
|---|---|---|---|---|---|
| 2026-05-07 22:31 | 1.36244 | 103.98801 | 28 ft | 0 kts | 112° |
| 2026-05-07 22:44 | 1.36247 | 103.98794 | 29 ft | 2 kts | 114° |
| 2026-05-07 22:44 | 1.36254 | 103.98780 | 29 ft | 2 kts | 121° |
| 2026-05-07 22:45 | 1.36264 | 103.98766 | 27 ft | 2 kts | 130° |
| 2026-05-07 22:45 | 1.36275 | 103.98754 | 27 ft | 2 kts | 143° |
| 2026-05-07 22:45 | 1.36289 | 103.98746 | 27 ft | 2 kts | 161° |
| 2026-05-07 22:45 | 1.36305 | 103.98743 | 28 ft | 2 kts | 181° |
| 2026-05-07 22:46 | 1.36322 | 103.98745 | 29 ft | 2 kts | 196° |
| 2026-05-07 22:46 | 1.36332 | 103.98748 | 27 ft | 1 kts | 201° |
| 2026-05-07 22:46 | 1.36333 | 103.98749 | 26 ft | 0 kts | 201° |
| 2026-05-07 22:48 | 1.36330 | 103.98748 | 27 ft | 2 kts | 201° |
| 2026-05-07 22:48 | 1.36299 | 103.98735 | 28 ft | 8 kts | 202° |
| 2026-05-07 22:48 | 1.36236 | 103.98709 | 29 ft | 10 kts | 202° |
| 2026-05-07 22:49 | 1.36170 | 103.98681 | 29 ft | 10 kts | 202° |
| 2026-05-07 22:49 | 1.36104 | 103.98653 | 29 ft | 10 kts | 203° |
| 2026-05-07 22:49 | 1.36075 | 103.98595 | 29 ft | 10 kts | 278° |
| 2026-05-07 22:49 | 1.36099 | 103.98527 | 29 ft | 10 kts | 294° |
| 2026-05-07 22:50 | 1.36095 | 103.98459 | 29 ft | 10 kts | 231° |
| 2026-05-07 22:50 | 1.36025 | 103.98421 | 29 ft | 13 kts | 202° |
| 2026-05-07 22:50 | 1.35929 | 103.98381 | 29 ft | 17 kts | 202° |
| 2026-05-07 22:50 | 1.35828 | 103.98338 | 29 ft | 19 kts | 203° |
| 2026-05-07 22:51 | 1.35740 | 103.98300 | 29 ft | 21 kts | 203° |
| 2026-05-07 22:52 | 1.35600 | 103.98242 | 29 ft | 22 kts | 202° |
| 2026-05-07 22:52 | 1.35461 | 103.98184 | 29 ft | 22 kts | 202° |
| 2026-05-07 22:52 | 1.35322 | 103.98125 | 29 ft | 22 kts | 203° |
| 2026-05-07 22:52 | 1.35183 | 103.98066 | 29 ft | 22 kts | 203° |
| 2026-05-07 22:53 | 1.35045 | 103.98007 | 29 ft | 22 kts | 203° |
| 2026-05-07 22:53 | 1.34906 | 103.97948 | 29 ft | 22 kts | 202° |
| 2026-05-07 22:53 | 1.34795 | 103.97902 | 29 ft | 12 kts | 200° |
| 2026-05-07 22:53 | 1.34732 | 103.97943 | 29 ft | 13 kts | 120° |
| 2026-05-07 22:54 | 1.34691 | 103.98037 | 29 ft | 17 kts | 112° |
| 2026-05-07 22:54 | 1.34641 | 103.98156 | 29 ft | 20 kts | 112° |
| 2026-05-07 22:54 | 1.34582 | 103.98296 | 29 ft | 24 kts | 112° |
| 2026-05-07 22:54 | 1.34515 | 103.98455 | 29 ft | 25 kts | 113° |
| 2026-05-07 22:55 | 1.34450 | 103.98611 | 29 ft | 25 kts | 113° |
| 2026-05-07 22:55 | 1.34383 | 103.98768 | 29 ft | 25 kts | 113° |
| 2026-05-07 22:55 | 1.34321 | 103.98886 | 28 ft | 16 kts | 146° |
| 2026-05-07 22:55 | 1.34218 | 103.98865 | 29 ft | 16 kts | 203° |
| 2026-05-07 22:56 | 1.34117 | 103.98822 | 29 ft | 16 kts | 203° |
| 2026-05-07 22:56 | 1.34016 | 103.98779 | 29 ft | 16 kts | 203° |
| 2026-05-07 22:56 | 1.33913 | 103.98735 | 29 ft | 17 kts | 202° |
| 2026-05-07 22:56 | 1.33792 | 103.98684 | 29 ft | 20 kts | 203° |
| 2026-05-07 22:57 | 1.33664 | 103.98631 | 29 ft | 20 kts | 202° |
| 2026-05-07 22:57 | 1.33537 | 103.98577 | 29 ft | 20 kts | 203° |
| 2026-05-07 22:57 | 1.33409 | 103.98523 | 29 ft | 20 kts | 203° |
| 2026-05-07 22:57 | 1.33281 | 103.98469 | 29 ft | 20 kts | 203° |
| 2026-05-07 22:58 | 1.33153 | 103.98415 | 29 ft | 20 kts | 203° |
| 2026-05-07 22:58 | 1.33034 | 103.98364 | 29 ft | 12 kts | 203° |
| 2026-05-07 22:58 | 1.32964 | 103.98380 | 29 ft | 9 kts | 127° |
| 2026-05-07 22:58 | 1.32939 | 103.98434 | 29 ft | 9 kts | 113° |
| 2026-05-07 22:59 | 1.32919 | 103.98486 | 29 ft | 7 kts | 96° |
| 2026-05-07 22:59 | 1.32949 | 103.98522 | 29 ft | 7 kts | 23° |
| 2026-05-07 22:59 | 1.32957 | 103.98526 | 29 ft | 0 kts | 23° |
| 2026-05-07 23:00 | 1.32963 | 103.98528 | 29 ft | 7 kts | 23° |
| 2026-05-07 23:00 | 1.33194 | 103.98626 | 29 ft | 72 kts | 23° |
| 2026-05-07 23:00 | 1.33880 | 103.98916 | 29 ft | 140 kts | 23° |
| 2026-05-07 23:01 | 1.34971 | 103.99377 | 29 ft | 197 kts | 22° |
| 2026-05-07 23:01 | 1.36312 | 103.99886 | 391 ft | 205 kts | 21° |
| 2026-05-07 23:01 | 1.37662 | 104.00457 | 839 ft | 212 kts | 23° |
| 2026-05-07 23:01 | 1.39002 | 104.01054 | 1463 ft | 210 kts | 25° |
| 2026-05-07 23:02 | 1.40340 | 104.01656 | 1924 ft | 212 kts | 24° |
| 2026-05-07 23:02 | 1.41740 | 104.02253 | 2123 ft | 225 kts | 23° |
| 2026-05-07 23:02 | 1.43236 | 104.02873 | 2319 ft | 242 kts | 23° |
| 2026-05-07 23:02 | 1.44826 | 104.03535 | 2647 ft | 253 kts | 23° |
| 2026-05-07 23:03 | 1.46492 | 104.04233 | 2913 ft | 268 kts | 23° |
| 2026-05-07 23:03 | 1.48255 | 104.04909 | 3279 ft | 275 kts | 12° |
| 2026-05-07 23:03 | 1.50135 | 104.04865 | 3676 ft | 279 kts | 341° |
| 2026-05-07 23:03 | 1.51879 | 104.04043 | 4183 ft | 279 kts | 330° |
| 2026-05-07 23:04 | 1.53596 | 104.03102 | 4765 ft | 282 kts | 330° |
| 2026-05-07 23:04 | 1.55260 | 104.02200 | 5369 ft | 283 kts | 330° |
| 2026-05-07 23:04 | 1.57049 | 104.01229 | 5991 ft | 284 kts | 330° |
| 2026-05-07 23:04 | 1.58796 | 104.00281 | 6542 ft | 287 kts | 330° |
| 2026-05-07 23:05 | 1.60559 | 103.99325 | 7066 ft | 289 kts | 330° |
| 2026-05-07 23:05 | 1.62319 | 103.98373 | 7588 ft | 292 kts | 331° |
| 2026-05-07 23:05 | 1.64114 | 103.97402 | 8098 ft | 295 kts | 331° |
| 2026-05-07 23:05 | 1.65928 | 103.96422 | 8632 ft | 297 kts | 331° |
| 2026-05-07 23:06 | 1.67138 | 103.95769 | 8974 ft | 299 kts | 331° |
| 2026-05-07 23:06 | 1.68975 | 103.94777 | 9477 ft | 302 kts | 332° |
| 2026-05-07 23:06 | 1.70834 | 103.93774 | 9962 ft | 304 kts | 332° |
| 2026-05-07 23:06 | 1.72716 | 103.92759 | 10325 ft | 313 kts | 332° |
| 2026-05-07 23:07 | 1.74687 | 103.91692 | 10441 ft | 329 kts | 330° |
| 2026-05-07 23:07 | 1.76511 | 103.90262 | 10486 ft | 341 kts | 309° |
| 2026-05-07 23:07 | 1.77957 | 103.88329 | 10632 ft | 355 kts | 306° |
| 2026-05-07 23:07 | 1.79463 | 103.86291 | 10767 ft | 373 kts | 307° |
| 2026-05-07 23:08 | 1.81049 | 103.84190 | 11053 ft | 384 kts | 307° |
| 2026-05-07 23:08 | 1.82689 | 103.82046 | 11471 ft | 392 kts | 308° |
| 2026-05-07 23:08 | 1.84363 | 103.79871 | 12052 ft | 395 kts | 308° |
| 2026-05-07 23:08 | 1.86047 | 103.77689 | 12695 ft | 398 kts | 308° |
| 2026-05-07 23:09 | 1.87746 | 103.75490 | 13257 ft | 402 kts | 308° |
| 2026-05-07 23:09 | 1.89465 | 103.73266 | 13795 ft | 406 kts | 308° |
| 2026-05-07 23:09 | 1.91199 | 103.71020 | 14267 ft | 410 kts | 308° |
| 2026-05-07 23:09 | 1.92924 | 103.68780 | 14753 ft | 414 kts | 308° |